Stokesley, United Kingdom
Current Conditions -  °F | °C
As of 5:20 PM on Thursday 30 Oct 2014 (Local Time) from EGNV Reporting Station
Broken Clouds Broken Clouds  
Wind Chill: 59°   Ceiling: 3500
Heat Index: 59°   Visibility: 4mi
Dew Point: 55°   Wind: 10mph
Humidity: 88%   Direction: 180°S
Pressure: 29.94"   Gusts: NA
Location:  54.47°N, 1.19°W
Report Text: EGNV 301720Z 18009KT 7000 BKN035 15/13 Q1014
Loading
Personal Weather Stations






























Interactive Weather Map
Tropical Storm Tracking
New forecast layout! Learn more

10-Day Weather Forecast

Advertisements
Track Severe Weather on mobile